Terminal Aerodrome Forecast
Issued by NWS Cleveland, OH

Home | Current Version | Previous Version | Graphics & Text | Print | Product List | Glossary On
Versions: 1 2 3 4 5 6 7 8 9 10 11 12 13 14 15 16 17 18
000
FTUS41 KCLE 230500
TAFERI
TAF
KERI 230521Z 2306/2406 14012G18KT P6SM SCT040 OVC120
     FM231200 14014G24KT 5SM -SHRA SCT015 OVC025
      TEMPO 2314/2318 2SM -SHRA BR OVC015
     FM231800 15012G18KT 2SM -DZ BR OVC008=

USA.gov is the U.S. government's official web portal to all federal, state and local government web resources and services.